sensor_id;sensor_type;location;lat;lon;timestamp;P1;durP1;ratioP1;P2;durP2;ratioP2
3712;SDS011;1872;51.406;6.856;2022-12-11T00:00:07;36.30;;;17.93;;
3712;SDS011;1872;51.406;6.856;2022-12-11T00:02:34;46.77;;;19.53;;
3712;SDS011;1872;51.406;6.856;2022-12-11T00:05:00;54.50;;;20.83;;
3712;SDS011;1872;51.406;6.856;2022-12-11T00:07:26;44.77;;;19.47;;
3712;SDS011;1872;51.406;6.856;2022-12-11T00:09:52;46.33;;;19.40;;
3712;SDS011;1872;51.406;6.856;2022-12-11T00:12:17;45.50;;;20.30;;
3712;SDS011;1872;51.406;6.856;2022-12-11T00:14:43;46.93;;;19.77;;
3712;SDS011;1872;51.406;6.856;2022-12-11T00:17:08;43.87;;;20.73;;
3712;SDS011;1872;51.406;6.856;2022-12-11T00:19:34;44.67;;;19.90;;
3712;SDS011;1872;51.406;6.856;2022-12-11T00:22:00;44.00;;;21.03;;
3712;SDS011;1872;51.406;6.856;2022-12-11T00:24:26;48.90;;;21.10;;
3712;SDS011;1872;51.406;6.856;2022-12-11T00:26:55;55.80;;;20.97;;
3712;SDS011;1872;51.406;6.856;2022-12-11T00:29:20;43.63;;;20.80;;
3712;SDS011;1872;51.406;6.856;2022-12-11T00:31:46;50.57;;;22.10;;
3712;SDS011;1872;51.406;6.856;2022-12-11T00:34:12;55.77;;;23.10;;
3712;SDS011;1872;51.406;6.856;2022-12-11T00:36:37;45.50;;;21.87;;
3712;SDS011;1872;51.406;6.856;2022-12-11T00:39:03;48.27;;;22.53;;
3712;SDS011;1872;51.406;6.856;2022-12-11T00:41:31;43.07;;;20.40;;
3712;SDS011;1872;51.406;6.856;2022-12-11T00:43:56;50.23;;;22.23;;
3712;SDS011;1872;51.406;6.856;2022-12-11T00:46:22;47.57;;;22.63;;
3712;SDS011;1872;51.406;6.856;2022-12-11T00:48:48;54.07;;;20.63;;
3712;SDS011;1872;51.406;6.856;2022-12-11T00:51:14;53.17;;;23.03;;
3712;SDS011;1872;51.406;6.856;2022-12-11T00:53:41;55.50;;;23.97;;
3712;SDS011;1872;51.406;6.856;2022-12-11T00:56:11;51.13;;;23.07;;
3712;SDS011;1872;51.406;6.856;2022-12-11T00:58:39;54.17;;;22.27;;
3712;SDS011;1872;51.406;6.856;2022-12-11T01:01:06;52.13;;;23.33;;
3712;SDS011;1872;51.406;6.856;2022-12-11T01:03:33;56.70;;;21.23;;
3712;SDS011;1872;51.406;6.856;2022-12-11T01:05:58;49.57;;;20.60;;
3712;SDS011;1872;51.406;6.856;2022-12-11T01:08:24;51.67;;;23.27;;
3712;SDS011;1872;51.406;6.856;2022-12-11T01:10:50;51.07;;;22.13;;
3712;SDS011;1872;51.406;6.856;2022-12-11T01:13:15;50.17;;;23.20;;
3712;SDS011;1872;51.406;6.856;2022-12-11T01:15:42;56.70;;;21.03;;
3712;SDS011;1872;51.406;6.856;2022-12-11T01:18:10;49.40;;;22.97;;
3712;SDS011;1872;51.406;6.856;2022-12-11T01:20:37;59.83;;;22.90;;
3712;SDS011;1872;51.406;6.856;2022-12-11T01:23:04;49.40;;;21.60;;
3712;SDS011;1872;51.406;6.856;2022-12-11T01:25:30;44.90;;;18.90;;
3712;SDS011;1872;51.406;6.856;2022-12-11T01:27:57;56.73;;;23.20;;
3712;SDS011;1872;51.406;6.856;2022-12-11T01:30:24;41.70;;;19.90;;
3712;SDS011;1872;51.406;6.856;2022-12-11T01:32:50;45.57;;;20.17;;
3712;SDS011;1872;51.406;6.856;2022-12-11T01:35:16;40.13;;;17.63;;
3712;SDS011;1872;51.406;6.856;2022-12-11T01:37:42;36.87;;;17.17;;
3712;SDS011;1872;51.406;6.856;2022-12-11T01:40:09;43.97;;;18.03;;
3712;SDS011;1872;51.406;6.856;2022-12-11T01:42:37;42.70;;;19.30;;
3712;SDS011;1872;51.406;6.856;2022-12-11T01:45:36;36.33;;;16.60;;
3712;SDS011;1872;51.406;6.856;2022-12-11T01:48:19;28.63;;;15.90;;
3712;SDS011;1872;51.406;6.856;2022-12-11T01:50:49;35.00;;;16.20;;
3712;SDS011;1872;51.406;6.856;2022-12-11T01:53:21;33.20;;;15.47;;
3712;SDS011;1872;51.406;6.856;2022-12-11T01:55:53;37.50;;;17.80;;
3712;SDS011;1872;51.406;6.856;2022-12-11T01:58:21;37.17;;;17.00;;
3712;SDS011;1872;51.406;6.856;2022-12-11T02:00:52;40.90;;;20.13;;
3712;SDS011;1872;51.406;6.856;2022-12-11T02:03:18;29.97;;;16.40;;
3712;SDS011;1872;51.406;6.856;2022-12-11T02:05:44;34.27;;;15.30;;
3712;SDS011;1872;51.406;6.856;2022-12-11T02:08:10;34.50;;;16.50;;
3712;SDS011;1872;51.406;6.856;2022-12-11T02:16:30;36.40;;;17.97;;
3712;SDS011;1872;51.406;6.856;2022-12-11T02:18:59;39.87;;;17.10;;
3712;SDS011;1872;51.406;6.856;2022-12-11T02:21:39;32.60;;;15.60;;
3712;SDS011;1872;51.406;6.856;2022-12-11T02:29:34;37.00;;;18.20;;
3712;SDS011;1872;51.406;6.856;2022-12-11T02:32:15;36.57;;;16.83;;
3712;SDS011;1872;51.406;6.856;2022-12-11T02:34:53;39.00;;;16.07;;
3712;SDS011;1872;51.406;6.856;2022-12-11T02:37:23;40.67;;;18.00;;
3712;SDS011;1872;51.406;6.856;2022-12-11T02:39:53;33.60;;;16.10;;
3712;SDS011;1872;51.406;6.856;2022-12-11T02:42:22;30.40;;;14.90;;
3712;SDS011;1872;51.406;6.856;2022-12-11T02:44:52;34.57;;;15.90;;
3712;SDS011;1872;51.406;6.856;2022-12-11T02:47:21;35.13;;;17.30;;
3712;SDS011;1872;51.406;6.856;2022-12-11T02:49:48;32.27;;;15.73;;
3712;SDS011;1872;51.406;6.856;2022-12-11T02:52:15;34.53;;;16.00;;
3712;SDS011;1872;51.406;6.856;2022-12-11T02:54:44;30.57;;;15.13;;
3712;SDS011;1872;51.406;6.856;2022-12-11T02:57:15;31.53;;;16.97;;
3712;SDS011;1872;51.406;6.856;2022-12-11T02:59:57;30.30;;;15.17;;
3712;SDS011;1872;51.406;6.856;2022-12-11T03:02:23;37.07;;;16.20;;
3712;SDS011;1872;51.406;6.856;2022-12-11T03:04:48;38.70;;;16.83;;
3712;SDS011;1872;51.406;6.856;2022-12-11T03:07:16;38.03;;;17.23;;
3712;SDS011;1872;51.406;6.856;2022-12-11T03:09:47;30.90;;;16.50;;
3712;SDS011;1872;51.406;6.856;2022-12-11T03:12:16;35.97;;;17.90;;
3712;SDS011;1872;51.406;6.856;2022-12-11T03:14:46;32.33;;;17.90;;
3712;SDS011;1872;51.406;6.856;2022-12-11T03:19:48;36.83;;;18.27;;
3712;SDS011;1872;51.406;6.856;2022-12-11T03:22:19;48.67;;;19.00;;
3712;SDS011;1872;51.406;6.856;2022-12-11T03:24:58;37.07;;;17.57;;
3712;SDS011;1872;51.406;6.856;2022-12-11T03:27:32;36.17;;;17.60;;
3712;SDS011;1872;51.406;6.856;2022-12-11T03:30:19;35.73;;;17.40;;
3712;SDS011;1872;51.406;6.856;2022-12-11T03:32:48;36.90;;;17.97;;
3712;SDS011;1872;51.406;6.856;2022-12-11T03:37:50;40.63;;;18.97;;
3712;SDS011;1872;51.406;6.856;2022-12-11T03:40:18;38.97;;;16.80;;
3712;SDS011;1872;51.406;6.856;2022-12-11T03:42:45;42.10;;;20.80;;
3712;SDS011;1872;51.406;6.856;2022-12-11T03:45:16;46.00;;;18.07;;
3712;SDS011;1872;51.406;6.856;2022-12-11T03:47:44;34.40;;;17.40;;
3712;SDS011;1872;51.406;6.856;2022-12-11T03:50:11;37.07;;;17.67;;
3712;SDS011;1872;51.406;6.856;2022-12-11T03:52:41;45.80;;;18.77;;
3712;SDS011;1872;51.406;6.856;2022-12-11T03:55:09;37.17;;;18.03;;
3712;SDS011;1872;51.406;6.856;2022-12-11T03:57:37;36.73;;;18.63;;
3712;SDS011;1872;51.406;6.856;2022-12-11T04:00:08;43.47;;;19.63;;
3712;SDS011;1872;51.406;6.856;2022-12-11T04:02:35;36.13;;;17.67;;
3712;SDS011;1872;51.406;6.856;2022-12-11T04:05:01;42.23;;;17.57;;
3712;SDS011;1872;51.406;6.856;2022-12-11T04:07:27;35.17;;;17.87;;
3712;SDS011;1872;51.406;6.856;2022-12-11T04:09:53;38.63;;;17.67;;
3712;SDS011;1872;51.406;6.856;2022-12-11T04:12:18;46.10;;;18.77;;
3712;SDS011;1872;51.406;6.856;2022-12-11T04:14:44;43.10;;;19.37;;
3712;SDS011;1872;51.406;6.856;2022-12-11T04:17:32;44.40;;;19.60;;
3712;SDS011;1872;51.406;6.856;2022-12-11T04:20:18;42.53;;;20.43;;
3712;SDS011;1872;51.406;6.856;2022-12-11T04:23:04;40.53;;;18.87;;
3712;SDS011;1872;51.406;6.856;2022-12-11T04:26:03;38.80;;;18.87;;
3712;SDS011;1872;51.406;6.856;2022-12-11T04:28:32;38.80;;;16.90;;
3712;SDS011;1872;51.406;6.856;2022-12-11T04:30:58;46.00;;;18.80;;
3712;SDS011;1872;51.406;6.856;2022-12-11T04:33:24;38.73;;;19.17;;
3712;SDS011;1872;51.406;6.856;2022-12-11T04:35:50;43.37;;;19.10;;
3712;SDS011;1872;51.406;6.856;2022-12-11T04:38:16;43.50;;;18.17;;
3712;SDS011;1872;51.406;6.856;2022-12-11T04:40:41;42.83;;;19.33;;
3712;SDS011;1872;51.406;6.856;2022-12-11T04:43:07;33.70;;;16.67;;
3712;SDS011;1872;51.406;6.856;2022-12-11T04:45:32;48.10;;;20.50;;
3712;SDS011;1872;51.406;6.856;2022-12-11T04:47:59;38.93;;;18.67;;
3712;SDS011;1872;51.406;6.856;2022-12-11T04:50:25;38.23;;;19.03;;
3712;SDS011;1872;51.406;6.856;2022-12-11T04:52:53;44.70;;;18.50;;
3712;SDS011;1872;51.406;6.856;2022-12-11T04:55:19;39.30;;;18.70;;
3712;SDS011;1872;51.406;6.856;2022-12-11T04:57:45;39.20;;;20.00;;
3712;SDS011;1872;51.406;6.856;2022-12-11T05:00:10;39.63;;;19.53;;
3712;SDS011;1872;51.406;6.856;2022-12-11T05:02:37;41.93;;;19.13;;
3712;SDS011;1872;51.406;6.856;2022-12-11T05:05:04;42.13;;;19.40;;
3712;SDS011;1872;51.406;6.856;2022-12-11T05:07:31;39.97;;;20.97;;
3712;SDS011;1872;51.406;6.856;2022-12-11T05:09:56;51.27;;;21.13;;
3712;SDS011;1872;51.406;6.856;2022-12-11T05:12:22;41.50;;;20.60;;
3712;SDS011;1872;51.406;6.856;2022-12-11T05:14:51;46.23;;;18.73;;
3712;SDS011;1872;51.406;6.856;2022-12-11T05:17:18;36.53;;;20.90;;
3712;SDS011;1872;51.406;6.856;2022-12-11T05:19:45;49.30;;;21.07;;
3712;SDS011;1872;51.406;6.856;2022-12-11T05:22:12;43.67;;;20.93;;
3712;SDS011;1872;51.406;6.856;2022-12-11T05:24:38;41.83;;;19.33;;
3712;SDS011;1872;51.406;6.856;2022-12-11T05:27:03;52.77;;;20.57;;
3712;SDS011;1872;51.406;6.856;2022-12-11T05:29:29;39.90;;;19.73;;
3712;SDS011;1872;51.406;6.856;2022-12-11T05:31:54;41.13;;;19.80;;
3712;SDS011;1872;51.406;6.856;2022-12-11T05:34:20;42.40;;;19.77;;
3712;SDS011;1872;51.406;6.856;2022-12-11T05:36:46;44.00;;;20.77;;
3712;SDS011;1872;51.406;6.856;2022-12-11T05:39:11;37.43;;;18.60;;
3712;SDS011;1872;51.406;6.856;2022-12-11T05:41:37;39.70;;;19.03;;
3712;SDS011;1872;51.406;6.856;2022-12-11T05:44:03;41.93;;;19.27;;
3712;SDS011;1872;51.406;6.856;2022-12-11T05:46:29;37.77;;;18.50;;
3712;SDS011;1872;51.406;6.856;2022-12-11T05:48:56;44.30;;;20.70;;
3712;SDS011;1872;51.406;6.856;2022-12-11T05:51:24;43.20;;;19.07;;
3712;SDS011;1872;51.406;6.856;2022-12-11T05:53:51;40.20;;;20.40;;
3712;SDS011;1872;51.406;6.856;2022-12-11T05:56:19;42.27;;;19.83;;
3712;SDS011;1872;51.406;6.856;2022-12-11T05:58:53;39.07;;;19.40;;
3712;SDS011;1872;51.406;6.856;2022-12-11T06:01:24;35.93;;;17.60;;
3712;SDS011;1872;51.406;6.856;2022-12-11T06:03:53;38.03;;;18.17;;
3712;SDS011;1872;51.406;6.856;2022-12-11T06:06:19;37.23;;;18.60;;
3712;SDS011;1872;51.406;6.856;2022-12-11T06:08:48;39.40;;;19.30;;
3712;SDS011;1872;51.406;6.856;2022-12-11T06:11:18;36.77;;;19.30;;
3712;SDS011;1872;51.406;6.856;2022-12-11T06:13:44;34.10;;;17.33;;
3712;SDS011;1872;51.406;6.856;2022-12-11T06:16:10;40.23;;;19.13;;
3712;SDS011;1872;51.406;6.856;2022-12-11T06:18:37;41.97;;;18.70;;
3712;SDS011;1872;51.406;6.856;2022-12-11T06:21:17;38.50;;;18.60;;
3712;SDS011;1872;51.406;6.856;2022-12-11T06:23:48;41.50;;;19.17;;
3712;SDS011;1872;51.406;6.856;2022-12-11T06:26:16;36.60;;;18.40;;
3712;SDS011;1872;51.406;6.856;2022-12-11T06:28:43;39.53;;;18.73;;
3712;SDS011;1872;51.406;6.856;2022-12-11T06:31:09;35.20;;;18.13;;
3712;SDS011;1872;51.406;6.856;2022-12-11T06:33:35;37.80;;;18.43;;
3712;SDS011;1872;51.406;6.856;2022-12-11T06:36:03;39.00;;;18.30;;
3712;SDS011;1872;51.406;6.856;2022-12-11T06:38:30;35.00;;;17.70;;
3712;SDS011;1872;51.406;6.856;2022-12-11T06:40:56;36.40;;;18.13;;
3712;SDS011;1872;51.406;6.856;2022-12-11T06:43:23;38.87;;;20.00;;
3712;SDS011;1872;51.406;6.856;2022-12-11T06:45:49;35.13;;;18.20;;
3712;SDS011;1872;51.406;6.856;2022-12-11T06:48:15;36.17;;;17.93;;
3712;SDS011;1872;51.406;6.856;2022-12-11T06:50:41;36.70;;;17.87;;
3712;SDS011;1872;51.406;6.856;2022-12-11T06:53:07;31.53;;;18.27;;
3712;SDS011;1872;51.406;6.856;2022-12-11T06:55:35;38.07;;;19.37;;
3712;SDS011;1872;51.406;6.856;2022-12-11T06:58:01;36.90;;;19.27;;
3712;SDS011;1872;51.406;6.856;2022-12-11T07:00:27;40.20;;;19.33;;
3712;SDS011;1872;51.406;6.856;2022-12-11T07:02:52;39.30;;;19.13;;
3712;SDS011;1872;51.406;6.856;2022-12-11T07:05:18;36.77;;;18.10;;
3712;SDS011;1872;51.406;6.856;2022-12-11T07:07:44;34.60;;;18.50;;
3712;SDS011;1872;51.406;6.856;2022-12-11T07:10:09;44.03;;;20.77;;
3712;SDS011;1872;51.406;6.856;2022-12-11T07:12:35;36.60;;;18.30;;
3712;SDS011;1872;51.406;6.856;2022-12-11T07:15:01;32.87;;;17.53;;
3712;SDS011;1872;51.406;6.856;2022-12-11T07:17:28;31.73;;;18.13;;
3712;SDS011;1872;51.406;6.856;2022-12-11T07:19:54;38.80;;;18.37;;
3712;SDS011;1872;51.406;6.856;2022-12-11T07:22:20;34.00;;;18.00;;
3712;SDS011;1872;51.406;6.856;2022-12-11T07:24:46;40.20;;;18.00;;
3712;SDS011;1872;51.406;6.856;2022-12-11T07:27:12;29.50;;;18.07;;
3712;SDS011;1872;51.406;6.856;2022-12-11T07:29:38;37.77;;;18.53;;
3712;SDS011;1872;51.406;6.856;2022-12-11T07:32:03;38.57;;;19.37;;
3712;SDS011;1872;51.406;6.856;2022-12-11T07:34:29;39.37;;;17.67;;
3712;SDS011;1872;51.406;6.856;2022-12-11T07:36:55;38.27;;;18.90;;
3712;SDS011;1872;51.406;6.856;2022-12-11T07:39:20;33.03;;;17.40;;
3712;SDS011;1872;51.406;6.856;2022-12-11T07:41:46;30.43;;;17.60;;
3712;SDS011;1872;51.406;6.856;2022-12-11T07:44:12;37.57;;;17.57;;
3712;SDS011;1872;51.406;6.856;2022-12-11T07:46:37;30.80;;;17.70;;
3712;SDS011;1872;51.406;6.856;2022-12-11T07:49:06;31.63;;;17.90;;
3712;SDS011;1872;51.406;6.856;2022-12-11T07:51:33;39.23;;;17.40;;
3712;SDS011;1872;51.406;6.856;2022-12-11T07:54:04;37.43;;;19.17;;
3712;SDS011;1872;51.406;6.856;2022-12-11T07:56:40;33.37;;;17.30;;
3712;SDS011;1872;51.406;6.856;2022-12-11T07:59:10;36.87;;;17.97;;
3712;SDS011;1872;51.406;6.856;2022-12-11T08:01:37;34.60;;;17.07;;
3712;SDS011;1872;51.406;6.856;2022-12-11T08:04:03;39.17;;;18.30;;
3712;SDS011;1872;51.406;6.856;2022-12-11T08:06:32;37.33;;;17.60;;
3712;SDS011;1872;51.406;6.856;2022-12-11T08:08:59;36.40;;;17.77;;
3712;SDS011;1872;51.406;6.856;2022-12-11T08:11:26;32.27;;;15.97;;
3712;SDS011;1872;51.406;6.856;2022-12-11T08:13:53;32.83;;;16.77;;
3712;SDS011;1872;51.406;6.856;2022-12-11T08:16:19;30.57;;;16.00;;
3712;SDS011;1872;51.406;6.856;2022-12-11T08:18:46;34.17;;;17.93;;
3712;SDS011;1872;51.406;6.856;2022-12-11T08:21:23;29.67;;;15.90;;
3712;SDS011;1872;51.406;6.856;2022-12-11T08:23:50;32.07;;;16.90;;
3712;SDS011;1872;51.406;6.856;2022-12-11T08:26:17;33.30;;;17.27;;
3712;SDS011;1872;51.406;6.856;2022-12-11T08:28:45;30.13;;;17.43;;
3712;SDS011;1872;51.406;6.856;2022-12-11T08:31:12;29.67;;;18.57;;
3712;SDS011;1872;51.406;6.856;2022-12-11T08:33:38;35.60;;;18.67;;
3712;SDS011;1872;51.406;6.856;2022-12-11T08:36:06;32.87;;;16.80;;
3712;SDS011;1872;51.406;6.856;2022-12-11T08:38:34;29.80;;;17.17;;
3712;SDS011;1872;51.406;6.856;2022-12-11T08:41:10;28.17;;;16.67;;
3712;SDS011;1872;51.406;6.856;2022-12-11T08:43:38;34.90;;;17.17;;
3712;SDS011;1872;51.406;6.856;2022-12-11T08:46:04;33.37;;;18.90;;
3712;SDS011;1872;51.406;6.856;2022-12-11T08:48:31;35.43;;;18.37;;
3712;SDS011;1872;51.406;6.856;2022-12-11T08:51:01;34.47;;;16.37;;
3712;SDS011;1872;51.406;6.856;2022-12-11T08:53:29;27.40;;;15.30;;
3712;SDS011;1872;51.406;6.856;2022-12-11T08:56:05;34.77;;;17.13;;
3712;SDS011;1872;51.406;6.856;2022-12-11T08:58:33;40.27;;;18.70;;
3712;SDS011;1872;51.406;6.856;2022-12-11T09:01:04;29.70;;;16.30;;
3712;SDS011;1872;51.406;6.856;2022-12-11T09:03:30;31.33;;;16.77;;
3712;SDS011;1872;51.406;6.856;2022-12-11T09:05:56;26.80;;;16.20;;
3712;SDS011;1872;51.406;6.856;2022-12-11T09:08:22;36.43;;;16.27;;
3712;SDS011;1872;51.406;6.856;2022-12-11T09:10:48;30.80;;;15.17;;
3712;SDS011;1872;51.406;6.856;2022-12-11T09:13:14;28.83;;;15.73;;
3712;SDS011;1872;51.406;6.856;2022-12-11T09:15:39;30.33;;;16.37;;
3712;SDS011;1872;51.406;6.856;2022-12-11T09:18:06;30.23;;;16.70;;
3712;SDS011;1872;51.406;6.856;2022-12-11T09:20:32;30.17;;;17.10;;
3712;SDS011;1872;51.406;6.856;2022-12-11T09:22:57;28.73;;;14.90;;
3712;SDS011;1872;51.406;6.856;2022-12-11T09:25:23;33.73;;;15.83;;
3712;SDS011;1872;51.406;6.856;2022-12-11T09:27:48;29.33;;;15.80;;
3712;SDS011;1872;51.406;6.856;2022-12-11T09:30:14;31.37;;;17.83;;
3712;SDS011;1872;51.406;6.856;2022-12-11T09:32:40;26.50;;;15.67;;
3712;SDS011;1872;51.406;6.856;2022-12-11T09:35:06;35.80;;;17.10;;
3712;SDS011;1872;51.406;6.856;2022-12-11T09:37:32;31.80;;;17.40;;
3712;SDS011;1872;51.406;6.856;2022-12-11T09:39:58;31.33;;;16.53;;
3712;SDS011;1872;51.406;6.856;2022-12-11T09:42:26;30.20;;;17.00;;
3712;SDS011;1872;51.406;6.856;2022-12-11T09:45:00;32.10;;;16.40;;
3712;SDS011;1872;51.406;6.856;2022-12-11T09:47:38;29.47;;;16.00;;
3712;SDS011;1872;51.406;6.856;2022-12-11T09:52:36;35.17;;;18.27;;
3712;SDS011;1872;51.406;6.856;2022-12-11T09:55:27;33.03;;;16.23;;
3712;SDS011;1872;51.406;6.856;2022-12-11T10:06:17;29.30;;;16.33;;
3712;SDS011;1872;51.406;6.856;2022-12-11T10:16:43;28.23;;;15.83;;
3712;SDS011;1872;51.406;6.856;2022-12-11T10:19:17;29.67;;;15.67;;
3712;SDS011;1872;51.406;6.856;2022-12-11T10:21:52;32.03;;;14.80;;
3712;SDS011;1872;51.406;6.856;2022-12-11T10:27:13;29.10;;;14.80;;
3712;SDS011;1872;51.406;6.856;2022-12-11T10:29:43;28.67;;;15.60;;
3712;SDS011;1872;51.406;6.856;2022-12-11T10:32:14;31.57;;;15.83;;
3712;SDS011;1872;51.406;6.856;2022-12-11T10:34:47;40.50;;;15.90;;
3712;SDS011;1872;51.406;6.856;2022-12-11T10:37:15;30.43;;;15.20;;
3712;SDS011;1872;51.406;6.856;2022-12-11T10:39:41;31.60;;;16.67;;
3712;SDS011;1872;51.406;6.856;2022-12-11T10:42:15;28.50;;;16.40;;
3712;SDS011;1872;51.406;6.856;2022-12-11T10:45:00;30.27;;;15.47;;
3712;SDS011;1872;51.406;6.856;2022-12-11T10:47:28;26.13;;;14.67;;
3712;SDS011;1872;51.406;6.856;2022-12-11T10:49:59;27.47;;;15.33;;
3712;SDS011;1872;51.406;6.856;2022-12-11T10:52:28;26.23;;;15.27;;
3712;SDS011;1872;51.406;6.856;2022-12-11T10:55:01;25.90;;;14.20;;
3712;SDS011;1872;51.406;6.856;2022-12-11T10:57:31;25.60;;;13.40;;
3712;SDS011;1872;51.406;6.856;2022-12-11T10:59:59;27.13;;;14.47;;
3712;SDS011;1872;51.406;6.856;2022-12-11T11:02:38;24.13;;;14.30;;
3712;SDS011;1872;51.406;6.856;2022-12-11T11:08:03;31.37;;;14.93;;
3712;SDS011;1872;51.406;6.856;2022-12-11T11:10:36;25.67;;;13.60;;
3712;SDS011;1872;51.406;6.856;2022-12-11T11:13:02;27.13;;;14.30;;
3712;SDS011;1872;51.406;6.856;2022-12-11T11:15:28;26.30;;;14.20;;
3712;SDS011;1872;51.406;6.856;2022-12-11T11:18:09;26.63;;;15.10;;
3712;SDS011;1872;51.406;6.856;2022-12-11T11:20:42;26.23;;;14.07;;
3712;SDS011;1872;51.406;6.856;2022-12-11T11:23:13;29.87;;;14.57;;
3712;SDS011;1872;51.406;6.856;2022-12-11T11:25:43;27.23;;;15.60;;
3712;SDS011;1872;51.406;6.856;2022-12-11T11:28:21;24.97;;;14.20;;
3712;SDS011;1872;51.406;6.856;2022-12-11T11:30:59;28.30;;;14.37;;
3712;SDS011;1872;51.406;6.856;2022-12-11T11:34:00;32.20;;;16.67;;
3712;SDS011;1872;51.406;6.856;2022-12-11T11:36:28;28.67;;;14.23;;
3712;SDS011;1872;51.406;6.856;2022-12-11T11:42:14;29.70;;;15.67;;
3712;SDS011;1872;51.406;6.856;2022-12-11T11:44:33;34.63;;;16.20;;
3712;SDS011;1872;51.406;6.856;2022-12-11T11:47:30;25.57;;;13.60;;
3712;SDS011;1872;51.406;6.856;2022-12-11T11:52:54;27.90;;;14.40;;
3712;SDS011;1872;51.406;6.856;2022-12-11T11:55:57;24.33;;;14.20;;
3712;SDS011;1872;51.406;6.856;2022-12-11T12:01:22;28.23;;;12.43;;
3712;SDS011;1872;51.406;6.856;2022-12-11T12:03:48;27.50;;;14.20;;
3712;SDS011;1872;51.406;6.856;2022-12-11T12:08:56;25.93;;;13.97;;
3712;SDS011;1872;51.406;6.856;2022-12-11T12:17:11;24.47;;;13.10;;
3712;SDS011;1872;51.406;6.856;2022-12-11T12:25:41;21.37;;;12.00;;
3712;SDS011;1872;51.406;6.856;2022-12-11T12:31:12;22.13;;;12.07;;
3712;SDS011;1872;51.406;6.856;2022-12-11T12:39:41;25.00;;;12.90;;
3712;SDS011;1872;51.406;6.856;2022-12-11T12:44:43;21.43;;;11.87;;
3712;SDS011;1872;51.406;6.856;2022-12-11T12:47:30;21.13;;;13.23;;
3712;SDS011;1872;51.406;6.856;2022-12-11T12:49:58;22.73;;;13.80;;
3712;SDS011;1872;51.406;6.856;2022-12-11T12:52:34;23.63;;;13.30;;
3712;SDS011;1872;51.406;6.856;2022-12-11T12:55:44;24.10;;;13.47;;
3712;SDS011;1872;51.406;6.856;2022-12-11T13:00:52;22.73;;;12.87;;
3712;SDS011;1872;51.406;6.856;2022-12-11T13:05:53;19.83;;;11.97;;
3712;SDS011;1872;51.406;6.856;2022-12-11T13:08:30;23.87;;;13.40;;
3712;SDS011;1872;51.406;6.856;2022-12-11T13:11:07;24.80;;;12.67;;
3712;SDS011;1872;51.406;6.856;2022-12-11T13:13:36;25.37;;;13.47;;
3712;SDS011;1872;51.406;6.856;2022-12-11T13:16:22;20.23;;;12.73;;
3712;SDS011;1872;51.406;6.856;2022-12-11T13:18:50;25.03;;;13.43;;
3712;SDS011;1872;51.406;6.856;2022-12-11T13:21:27;24.70;;;13.17;;
3712;SDS011;1872;51.406;6.856;2022-12-11T13:24:14;22.53;;;13.50;;
3712;SDS011;1872;51.406;6.856;2022-12-11T13:26:48;26.00;;;13.90;;
3712;SDS011;1872;51.406;6.856;2022-12-11T13:34:35;24.27;;;13.17;;
3712;SDS011;1872;51.406;6.856;2022-12-11T13:37:19;20.33;;;11.57;;
3712;SDS011;1872;51.406;6.856;2022-12-11T13:39:46;23.10;;;12.10;;
3712;SDS011;1872;51.406;6.856;2022-12-11T13:42:54;24.43;;;13.90;;
3712;SDS011;1872;51.406;6.856;2022-12-11T13:45:16;21.87;;;12.87;;
3712;SDS011;1872;51.406;6.856;2022-12-11T13:47:45;20.07;;;12.50;;
3712;SDS011;1872;51.406;6.856;2022-12-11T13:50:19;20.37;;;11.50;;
3712;SDS011;1872;51.406;6.856;2022-12-11T13:52:52;23.53;;;13.60;;
3712;SDS011;1872;51.406;6.856;2022-12-11T13:55:24;25.60;;;14.60;;
3712;SDS011;1872;51.406;6.856;2022-12-11T13:57:57;26.17;;;14.40;;
3712;SDS011;1872;51.406;6.856;2022-12-11T14:00:32;23.60;;;13.73;;
3712;SDS011;1872;51.406;6.856;2022-12-11T14:02:58;23.50;;;13.10;;
3712;SDS011;1872;51.406;6.856;2022-12-11T14:05:27;24.53;;;13.67;;
3712;SDS011;1872;51.406;6.856;2022-12-11T14:07:54;25.37;;;14.10;;
3712;SDS011;1872;51.406;6.856;2022-12-11T14:10:25;25.77;;;14.97;;
3712;SDS011;1872;51.406;6.856;2022-12-11T14:15:18;22.63;;;13.47;;
3712;SDS011;1872;51.406;6.856;2022-12-11T14:17:44;27.00;;;14.47;;
3712;SDS011;1872;51.406;6.856;2022-12-11T14:20:15;27.83;;;14.00;;
3712;SDS011;1872;51.406;6.856;2022-12-11T14:22:44;23.50;;;14.17;;
3712;SDS011;1872;51.406;6.856;2022-12-11T14:25:23;26.03;;;14.80;;
3712;SDS011;1872;51.406;6.856;2022-12-11T14:27:51;24.30;;;14.70;;
3712;SDS011;1872;51.406;6.856;2022-12-11T14:30:20;29.80;;;15.70;;
3712;SDS011;1872;51.406;6.856;2022-12-11T14:32:47;25.80;;;14.07;;
3712;SDS011;1872;51.406;6.856;2022-12-11T14:38:44;27.43;;;14.17;;
3712;SDS011;1872;51.406;6.856;2022-12-11T14:41:21;29.30;;;15.80;;
3712;SDS011;1872;51.406;6.856;2022-12-11T14:43:52;21.20;;;13.53;;
3712;SDS011;1872;51.406;6.856;2022-12-11T14:46:33;27.33;;;14.50;;
3712;SDS011;1872;51.406;6.856;2022-12-11T14:49:16;30.77;;;15.27;;
3712;SDS011;1872;51.406;6.856;2022-12-11T14:51:46;25.57;;;15.00;;
3712;SDS011;1872;51.406;6.856;2022-12-11T14:54:15;25.70;;;15.30;;
3712;SDS011;1872;51.406;6.856;2022-12-11T14:56:51;25.77;;;14.80;;
3712;SDS011;1872;51.406;6.856;2022-12-11T14:59:19;27.10;;;14.47;;
3712;SDS011;1872;51.406;6.856;2022-12-11T15:01:59;29.60;;;16.13;;
3712;SDS011;1872;51.406;6.856;2022-12-11T15:04:28;30.33;;;16.47;;
3712;SDS011;1872;51.406;6.856;2022-12-11T15:06:56;26.90;;;16.10;;
3712;SDS011;1872;51.406;6.856;2022-12-11T15:09:36;25.17;;;14.37;;
3712;SDS011;1872;51.406;6.856;2022-12-11T15:12:11;30.90;;;15.23;;
3712;SDS011;1872;51.406;6.856;2022-12-11T15:14:50;29.63;;;18.20;;
3712;SDS011;1872;51.406;6.856;2022-12-11T15:17:25;38.60;;;20.30;;
3712;SDS011;1872;51.406;6.856;2022-12-11T15:19:53;34.50;;;17.70;;
3712;SDS011;1872;51.406;6.856;2022-12-11T15:22:25;35.10;;;17.30;;
3712;SDS011;1872;51.406;6.856;2022-12-11T15:24:55;30.33;;;15.60;;
3712;SDS011;1872;51.406;6.856;2022-12-11T15:27:32;30.00;;;17.80;;
3712;SDS011;1872;51.406;6.856;2022-12-11T15:30:01;30.07;;;16.20;;
3712;SDS011;1872;51.406;6.856;2022-12-11T15:32:42;37.33;;;17.13;;
3712;SDS011;1872;51.406;6.856;2022-12-11T15:35:24;33.53;;;18.60;;
3712;SDS011;1872;51.406;6.856;2022-12-11T15:37:51;32.80;;;18.03;;
3712;SDS011;1872;51.406;6.856;2022-12-11T15:40:22;30.20;;;18.13;;
3712;SDS011;1872;51.406;6.856;2022-12-11T15:42:49;31.00;;;18.90;;
3712;SDS011;1872;51.406;6.856;2022-12-11T15:45:25;31.50;;;18.47;;
3712;SDS011;1872;51.406;6.856;2022-12-11T15:47:53;35.17;;;17.97;;
3712;SDS011;1872;51.406;6.856;2022-12-11T15:50:23;34.70;;;18.10;;
3712;SDS011;1872;51.406;6.856;2022-12-11T15:52:50;30.90;;;16.77;;
3712;SDS011;1872;51.406;6.856;2022-12-11T15:55:17;35.37;;;18.83;;
3712;SDS011;1872;51.406;6.856;2022-12-11T15:57:45;31.90;;;18.53;;
3712;SDS011;1872;51.406;6.856;2022-12-11T16:00:14;34.70;;;18.23;;
3712;SDS011;1872;51.406;6.856;2022-12-11T16:02:41;39.57;;;17.30;;
3712;SDS011;1872;51.406;6.856;2022-12-11T16:05:07;27.47;;;14.50;;
3712;SDS011;1872;51.406;6.856;2022-12-11T16:07:33;25.03;;;15.10;;
3712;SDS011;1872;51.406;6.856;2022-12-11T16:09:59;26.30;;;14.90;;
3712;SDS011;1872;51.406;6.856;2022-12-11T16:12:25;23.70;;;14.30;;
3712;SDS011;1872;51.406;6.856;2022-12-11T16:14:50;26.70;;;13.90;;
3712;SDS011;1872;51.406;6.856;2022-12-11T16:17:16;25.63;;;16.23;;
3712;SDS011;1872;51.406;6.856;2022-12-11T16:19:43;28.17;;;15.27;;
3712;SDS011;1872;51.406;6.856;2022-12-11T16:22:09;23.00;;;14.67;;
3712;SDS011;1872;51.406;6.856;2022-12-11T16:24:36;25.43;;;13.80;;
3712;SDS011;1872;51.406;6.856;2022-12-11T16:27:03;22.73;;;14.30;;
3712;SDS011;1872;51.406;6.856;2022-12-11T16:29:37;22.10;;;14.53;;
3712;SDS011;1872;51.406;6.856;2022-12-11T16:32:06;28.30;;;13.93;;
3712;SDS011;1872;51.406;6.856;2022-12-11T16:34:32;25.17;;;15.73;;